createdAt,value
2024-04-14T00:00:43.100Z,20.39
2024-04-14T00:03:09.898Z,20.50
2024-04-14T00:05:36.775Z,20.43
2024-04-14T00:08:03.944Z,20.23
2024-04-14T00:10:30.686Z,20.34
2024-04-14T00:13:00.031Z,20.35
2024-04-14T00:15:26.795Z,20.24
2024-04-14T00:17:53.676Z,20.08
2024-04-14T00:20:20.854Z,20.17
2024-04-14T00:22:48.368Z,20.28
2024-04-14T00:25:15.606Z,20.30
2024-04-14T00:27:42.821Z,20.30
2024-04-14T00:30:12.801Z,20.10
2024-04-14T00:32:39.933Z,20.18
2024-04-14T00:35:07.046Z,20.21
2024-04-14T00:37:33.848Z,20.11
2024-04-14T00:40:00.661Z,20.16
2024-04-14T00:42:27.490Z,20.12
2024-04-14T00:44:54.264Z,20.11
2024-04-14T00:47:23.800Z,20.07
2024-04-14T00:49:50.898Z,19.96
2024-04-14T00:52:17.831Z,19.92
2024-04-14T00:54:45.803Z,19.77
2024-04-14T00:57:13.209Z,19.89
2024-04-14T00:59:40.321Z,20.01
2024-04-14T01:02:07.688Z,19.95
2024-04-14T01:04:37.372Z,19.71
2024-04-14T01:07:04.617Z,20.03
2024-04-14T01:09:31.490Z,20.12
2024-04-14T01:11:58.246Z,20.13
2024-04-14T01:14:24.968Z,20.15
2024-04-14T01:16:51.778Z,20.20
2024-04-14T01:19:18.539Z,20.26
2024-04-14T01:21:47.899Z,20.27
2024-04-14T01:24:14.594Z,20.27
2024-04-14T01:26:43.955Z,20.27
2024-04-14T01:29:10.918Z,20.21
2024-04-14T01:31:38.117Z,20.01
2024-04-14T01:34:05.302Z,20.17
2024-04-14T01:36:32.525Z,20.21
2024-04-14T01:39:01.304Z,19.94
2024-04-14T01:41:28.485Z,19.93
2024-04-14T01:43:58.457Z,19.90
2024-04-14T01:46:25.569Z,19.45
2024-04-14T01:48:52.748Z,19.74
2024-04-14T01:51:20.045Z,19.50
2024-04-14T01:53:47.098Z,19.38
2024-04-14T01:56:14.256Z,19.22
2024-04-14T01:58:41.544Z,19.34
2024-04-14T02:01:11.909Z,19.58
2024-04-14T02:03:39.103Z,19.42
2024-04-14T02:06:06.857Z,19.43
2024-04-14T02:08:33.562Z,19.11
2024-04-14T02:11:01.453Z,19.51
2024-04-14T02:13:28.827Z,19.53
2024-04-14T02:15:55.540Z,19.48
2024-04-14T02:18:25.190Z,19.48
2024-04-14T02:20:51.927Z,19.44
2024-04-14T02:23:18.631Z,19.34
2024-04-14T02:25:54.400Z,19.42
2024-04-14T02:28:21.167Z,19.50
2024-04-14T02:30:47.989Z,19.40
2024-04-14T02:33:14.810Z,19.42
2024-04-14T02:35:53.170Z,19.28
2024-04-14T02:38:19.990Z,19.38
2024-04-14T02:40:55.628Z,19.29
2024-04-14T02:43:22.333Z,19.31
2024-04-14T02:45:49.156Z,19.00
2024-04-14T02:48:15.971Z,18.99
2024-04-14T02:50:45.614Z,18.89
2024-04-14T02:53:12.590Z,19.02
2024-04-14T02:55:39.955Z,19.02
2024-04-14T02:58:08.607Z,19.10
2024-04-14T03:00:35.539Z,18.85
2024-04-14T03:03:02.807Z,18.99
2024-04-14T03:05:29.684Z,18.94
2024-04-14T03:07:59.462Z,18.87
2024-04-14T03:10:26.610Z,18.69
2024-04-14T03:12:53.843Z,18.69
2024-04-14T03:15:21.019Z,18.84
2024-04-14T03:17:48.195Z,18.95
2024-04-14T03:20:15.688Z,18.90
2024-04-14T03:22:42.779Z,18.94
2024-04-14T03:25:12.496Z,18.98
2024-04-14T03:27:39.872Z,18.83
2024-04-14T03:30:08.573Z,18.82
2024-04-14T03:32:35.867Z,18.92
2024-04-14T03:35:03.221Z,18.95
2024-04-14T03:37:30.346Z,18.86
2024-04-14T03:39:57.543Z,18.79
2024-04-14T03:42:27.363Z,18.80
2024-04-14T03:44:54.466Z,18.71
2024-04-14T03:47:21.577Z,18.75
2024-04-14T03:49:48.683Z,18.53
2024-04-14T03:52:15.742Z,18.57
2024-04-14T03:54:42.811Z,18.43
2024-04-14T03:57:09.870Z,18.43
2024-04-14T03:59:39.516Z,18.54
2024-04-14T04:02:06.705Z,18.40
2024-04-14T04:04:33.935Z,18.50
2024-04-14T04:07:01.011Z,18.45
2024-04-14T04:09:28.163Z,18.48
2024-04-14T04:11:55.226Z,18.29
2024-04-14T04:14:22.285Z,18.44
2024-04-14T04:16:53.147Z,18.48
2024-04-14T04:19:26.135Z,18.28
2024-04-14T04:21:55.078Z,18.36
2024-04-14T04:24:25.200Z,18.33
2024-04-14T04:26:52.882Z,18.09
2024-04-14T04:29:20.028Z,17.85
2024-04-14T04:31:47.062Z,18.08
2024-04-14T04:34:16.842Z,18.19
2024-04-14T04:36:45.502Z,18.09
2024-04-14T04:39:12.640Z,18.17
2024-04-14T04:41:39.688Z,18.18
2024-04-14T04:44:06.729Z,17.91
2024-04-14T04:46:33.821Z,18.06
2024-04-14T04:49:00.941Z,18.09
2024-04-14T04:51:31.557Z,18.11
2024-04-14T04:53:58.642Z,17.95
2024-04-14T04:56:25.741Z,18.13
2024-04-14T04:58:52.889Z,18.03
2024-04-14T05:01:20.078Z,17.95
2024-04-14T05:03:47.295Z,18.05
2024-04-14T05:06:14.455Z,18.00
2024-04-14T05:08:44.157Z,18.13
2024-04-14T05:11:11.255Z,18.23
2024-04-14T05:13:38.356Z,18.05
2024-04-14T05:16:06.307Z,17.93
2024-04-14T05:18:33.639Z,18.00
2024-04-14T05:21:01.016Z,17.99
2024-04-14T05:23:28.107Z,17.96
2024-04-14T05:26:00.823Z,17.80
2024-04-14T05:28:27.991Z,17.99
2024-04-14T05:30:55.218Z,17.74
2024-04-14T05:33:22.361Z,17.76
2024-04-14T05:35:53.861Z,17.97
2024-04-14T05:38:21.013Z,17.97
2024-04-14T05:40:48.218Z,18.21
2024-04-14T05:43:18.059Z,18.15
2024-04-14T05:45:45.847Z,18.23
2024-04-14T05:48:13.309Z,18.34
2024-04-14T05:50:40.483Z,18.34
2024-04-14T05:53:07.535Z,18.45
2024-04-14T05:55:34.750Z,18.47
2024-04-14T05:58:02.131Z,18.32
2024-04-14T06:00:32.089Z,18.60
2024-04-14T06:02:59.175Z,18.74
2024-04-14T06:05:26.319Z,18.73
2024-04-14T06:07:53.525Z,18.59
2024-04-14T06:10:20.716Z,18.88
2024-04-14T06:12:47.813Z,18.89
2024-04-14T06:15:14.963Z,19.05
2024-04-14T06:17:44.956Z,19.14
2024-04-14T06:20:12.023Z,19.21
2024-04-14T06:22:39.055Z,19.08
2024-04-14T06:25:06.287Z,19.15
2024-04-14T06:27:33.431Z,19.45
2024-04-14T06:30:00.562Z,19.59
2024-04-14T06:32:28.057Z,19.53
2024-04-14T06:34:57.912Z,19.55
2024-04-14T06:37:25.026Z,19.56
2024-04-14T06:39:52.181Z,19.53
2024-04-14T06:42:19.286Z,19.14
2024-04-14T06:44:46.559Z,19.60
2024-04-14T06:47:13.645Z,19.76
2024-04-14T06:49:40.713Z,19.91
2024-04-14T06:52:10.405Z,19.91
2024-04-14T06:54:37.612Z,20.20
2024-04-14T06:57:05.395Z,20.28
2024-04-14T06:59:32.450Z,20.28
2024-04-14T07:01:59.603Z,20.59
2024-04-14T07:04:27.108Z,20.67
2024-04-14T07:06:54.310Z,20.83
2024-04-14T07:09:24.101Z,20.79
2024-04-14T07:11:51.312Z,20.78
2024-04-14T07:14:18.418Z,20.81
2024-04-14T07:16:45.475Z,20.97
2024-04-14T07:19:12.747Z,21.22
2024-04-14T07:21:40.063Z,21.23
2024-04-14T07:24:07.499Z,21.24
2024-04-14T07:26:37.230Z,21.34
2024-04-14T07:29:04.285Z,21.54
2024-04-14T07:31:31.480Z,21.74
2024-04-14T07:34:00.203Z,21.86
2024-04-14T07:36:27.554Z,21.90
2024-04-14T07:38:54.781Z,21.68
2024-04-14T07:41:22.057Z,21.55
2024-04-14T07:43:51.840Z,21.86
2024-04-14T07:46:19.524Z,21.94
2024-04-14T07:48:46.603Z,21.76
2024-04-14T07:51:13.691Z,21.90
2024-04-14T07:53:41.670Z,21.84
2024-04-14T07:56:08.711Z,21.99
2024-04-14T07:58:35.735Z,22.11
2024-04-14T08:01:05.552Z,22.27
2024-04-14T08:03:42.647Z,22.35
2024-04-14T08:06:17.736Z,22.43
2024-04-14T08:08:44.774Z,22.40
2024-04-14T08:11:11.881Z,22.38
2024-04-14T08:13:38.938Z,22.46
2024-04-14T08:16:09.060Z,22.56
2024-04-14T08:18:36.395Z,22.29
2024-04-14T08:21:03.921Z,22.60
2024-04-14T08:23:31.188Z,22.26
2024-04-14T08:26:01.375Z,22.40
2024-04-14T08:28:28.431Z,22.68
2024-04-14T08:30:55.654Z,22.84
2024-04-14T08:33:25.582Z,22.96
2024-04-14T08:35:52.910Z,23.07
2024-04-14T08:38:19.956Z,23.07
2024-04-14T08:40:53.178Z,23.14
2024-04-14T08:43:21.201Z,23.19
2024-04-14T08:45:48.649Z,23.28
2024-04-14T08:48:18.927Z,23.44
2024-04-14T08:50:48.789Z,23.48
2024-04-14T08:53:19.387Z,23.53
2024-04-14T08:55:49.158Z,23.50
2024-04-14T08:58:17.196Z,23.69
2024-04-14T09:00:45.256Z,23.82
2024-04-14T09:03:12.631Z,23.95
2024-04-14T09:05:41.984Z,23.90
2024-04-14T09:08:11.744Z,24.07
2024-04-14T09:10:38.997Z,24.19
2024-04-14T09:13:08.961Z,24.16
2024-04-14T09:15:40.185Z,24.21
2024-04-14T09:18:07.562Z,24.18
2024-04-14T09:20:34.300Z,24.35
2024-04-14T09:23:01.051Z,24.35
2024-04-14T09:25:30.557Z,24.37
2024-04-14T09:28:02.424Z,24.35
2024-04-14T09:30:29.704Z,24.35
2024-04-14T09:32:58.782Z,24.49
2024-04-14T09:35:26.605Z,24.40
2024-04-14T09:37:53.834Z,24.58
2024-04-14T09:40:20.866Z,24.56
2024-04-14T09:42:52.470Z,24.36
2024-04-14T09:45:19.655Z,24.59
2024-04-14T09:47:48.116Z,24.38
2024-04-14T09:50:14.885Z,24.28
2024-04-14T09:52:45.033Z,24.40
2024-04-14T09:55:11.870Z,24.34
2024-04-14T09:57:38.737Z,24.17
2024-04-14T10:00:10.075Z,24.17
2024-04-14T10:02:41.721Z,24.23
2024-04-14T10:05:09.904Z,24.32
2024-04-14T10:07:37.387Z,24.42
2024-04-14T10:10:07.777Z,24.57
2024-04-14T10:12:35.041Z,24.62
2024-04-14T10:15:07.314Z,24.17
2024-04-14T10:17:38.598Z,24.29
2024-04-14T10:20:14.038Z,24.39
2024-04-14T10:22:42.779Z,24.41
2024-04-14T10:25:18.399Z,24.40
2024-04-14T10:27:45.545Z,24.75
2024-04-14T10:30:20.260Z,24.39
2024-04-14T10:33:01.162Z,24.60
2024-04-14T10:35:27.978Z,24.63
2024-04-14T10:37:55.758Z,24.61
2024-04-14T10:40:23.301Z,24.85
2024-04-14T10:42:50.304Z,24.43
2024-04-14T10:45:25.526Z,24.52
2024-04-14T10:47:55.904Z,24.69
2024-04-14T10:50:22.620Z,24.65
2024-04-14T10:52:49.371Z,24.89
2024-04-14T10:55:16.096Z,24.94
2024-04-14T10:57:42.798Z,24.27
2024-04-14T11:00:10.944Z,24.52
2024-04-14T11:02:38.680Z,24.33
2024-04-14T11:05:09.233Z,24.40
2024-04-14T11:07:36.972Z,24.25
2024-04-14T11:10:09.825Z,24.37
2024-04-14T11:12:37.309Z,24.41
2024-04-14T11:15:06.919Z,24.67
2024-04-14T11:17:35.561Z,24.92
2024-04-14T11:20:02.846Z,24.96
2024-04-14T11:22:33.000Z,24.76
2024-04-14T11:25:00.261Z,24.87
2024-04-14T11:27:29.374Z,24.82
2024-04-14T11:29:57.932Z,24.94
2024-04-14T11:32:25.339Z,25.00
2024-04-14T11:34:52.591Z,24.95
2024-04-14T11:37:19.759Z,25.27
2024-04-14T11:39:49.641Z,24.98
2024-04-14T11:42:16.827Z,25.10
2024-04-14T11:44:44.086Z,25.03
2024-04-14T11:47:11.205Z,25.27
2024-04-14T11:49:38.284Z,25.17
2024-04-14T11:52:08.046Z,25.43
2024-04-14T11:54:38.990Z,25.06
2024-04-14T11:57:08.935Z,25.11
2024-04-14T11:59:36.143Z,25.36
2024-04-14T12:02:04.352Z,25.33
2024-04-14T12:04:31.471Z,25.23
2024-04-14T12:06:58.593Z,25.41
2024-04-14T12:09:25.837Z,25.41
2024-04-14T12:11:53.053Z,25.21
2024-04-14T12:14:23.012Z,25.48
2024-04-14T12:16:50.321Z,25.55
2024-04-14T12:19:17.482Z,25.62
2024-04-14T12:21:44.713Z,25.72
2024-04-14T12:24:11.881Z,25.69
2024-04-14T12:26:39.135Z,25.57
2024-04-14T12:29:06.232Z,25.80
2024-04-14T12:31:36.891Z,26.04
2024-04-14T12:34:04.827Z,26.21
2024-04-14T12:36:32.025Z,26.10
2024-04-14T12:38:58.947Z,26.41
2024-04-14T12:41:25.937Z,26.16
2024-04-14T12:43:53.359Z,26.52
2024-04-14T12:46:20.838Z,26.55
2024-04-14T12:48:50.553Z,26.58
2024-04-14T12:51:17.316Z,27.03
2024-04-14T12:53:44.079Z,26.92
2024-04-14T12:56:10.964Z,27.05
2024-04-14T12:58:37.824Z,27.05
2024-04-14T13:01:05.204Z,27.15
2024-04-14T13:03:32.032Z,27.38
2024-04-14T13:06:02.442Z,27.65
2024-04-14T13:08:29.666Z,27.83
2024-04-14T13:10:56.838Z,27.95
2024-04-14T13:13:23.626Z,27.81
2024-04-14T13:15:50.431Z,28.11
2024-04-14T13:18:17.312Z,28.26
2024-04-14T13:20:44.073Z,28.22
2024-04-14T13:23:13.520Z,28.27
2024-04-14T13:25:40.204Z,28.83
2024-04-14T13:28:07.048Z,28.98
2024-04-14T13:30:33.934Z,29.28
2024-04-14T13:33:01.106Z,29.83
2024-04-14T13:35:28.279Z,30.01
2024-04-14T13:37:55.660Z,29.64
2024-04-14T13:40:25.311Z,30.37
2024-04-14T13:42:52.470Z,30.56
2024-04-14T13:45:19.609Z,30.68
2024-04-14T13:47:46.793Z,31.07
2024-04-14T13:50:14.157Z,31.53
2024-04-14T13:52:41.344Z,31.75
2024-04-14T13:55:08.728Z,32.01
2024-04-14T13:57:38.958Z,32.31
2024-04-14T14:00:07.269Z,31.81
2024-04-14T14:02:34.412Z,32.32
2024-04-14T14:05:01.579Z,31.90
2024-04-14T14:07:30.044Z,32.48
2024-04-14T14:09:56.791Z,32.77
2024-04-14T14:12:23.507Z,32.80
2024-04-14T14:14:52.883Z,33.16
2024-04-14T14:17:19.650Z,32.46
2024-04-14T14:19:46.503Z,33.19
2024-04-14T14:22:13.281Z,32.85
2024-04-14T14:24:41.125Z,33.09
2024-04-14T14:27:07.829Z,33.20
2024-04-14T14:29:34.587Z,33.64
2024-04-14T14:32:04.723Z,34.07
2024-04-14T14:34:31.583Z,34.27
2024-04-14T14:36:58.451Z,34.60
2024-04-14T14:39:25.121Z,34.90
2024-04-14T14:41:51.893Z,34.99
2024-04-14T14:44:18.568Z,35.11
2024-04-14T14:46:45.315Z,35.58
2024-04-14T14:49:14.716Z,35.41
2024-04-14T14:51:42.430Z,35.63
2024-04-14T14:54:12.262Z,35.88
2024-04-14T14:56:39.496Z,35.97
2024-04-14T14:59:06.249Z,36.08
2024-04-14T15:01:33.012Z,36.34
2024-04-14T15:03:59.894Z,36.42
2024-04-14T15:06:29.230Z,36.43
2024-04-14T15:08:56.379Z,36.56
2024-04-14T15:11:23.562Z,36.68
2024-04-14T15:13:51.006Z,36.59
2024-04-14T15:16:18.557Z,36.84
2024-04-14T15:18:45.676Z,37.06
2024-04-14T15:21:12.778Z,36.45
2024-04-14T15:23:42.474Z,36.89
2024-04-14T15:26:09.582Z,37.06
2024-04-14T15:28:36.791Z,37.19
2024-04-14T15:31:04.384Z,37.21
2024-04-14T15:33:31.510Z,37.14
2024-04-14T15:35:58.612Z,37.50
2024-04-14T15:38:25.756Z,37.45
2024-04-14T15:40:56.370Z,37.04
2024-04-14T15:43:23.515Z,36.71
2024-04-14T15:45:50.717Z,36.45
2024-04-14T15:48:17.896Z,36.25
2024-04-14T15:50:45.008Z,36.02
2024-04-14T15:53:12.068Z,35.85
2024-04-14T15:55:39.401Z,35.82
2024-04-14T15:58:09.136Z,35.28
2024-04-14T16:00:36.367Z,35.33
2024-04-14T16:03:04.623Z,35.07
2024-04-14T16:05:31.791Z,34.53
2024-04-14T16:07:58.897Z,34.18
2024-04-14T16:10:29.136Z,33.46
2024-04-14T16:12:56.275Z,33.08
2024-04-14T16:15:26.006Z,33.22
2024-04-14T16:17:53.116Z,33.51
2024-04-14T16:20:20.253Z,33.46
2024-04-14T16:22:47.319Z,33.86
2024-04-14T16:25:16.605Z,34.06
2024-04-14T16:27:45.021Z,34.19
2024-04-14T16:30:12.149Z,34.52
2024-04-14T16:32:41.907Z,34.50
2024-04-14T16:35:09.006Z,34.30
2024-04-14T16:37:36.143Z,34.03
2024-04-14T16:40:03.359Z,34.43
2024-04-14T16:42:30.439Z,34.08
2024-04-14T16:44:57.483Z,34.28
2024-04-14T16:47:24.614Z,33.81
2024-04-14T16:49:54.539Z,34.05
2024-04-14T16:52:21.656Z,33.71
2024-04-14T16:54:48.745Z,33.55
2024-04-14T16:57:15.828Z,33.17
2024-04-14T16:59:42.865Z,33.13
2024-04-14T17:02:09.967Z,32.81
2024-04-14T17:04:37.042Z,32.67
2024-04-14T17:07:07.648Z,32.65
2024-04-14T17:09:34.869Z,32.51
2024-04-14T17:12:01.941Z,32.67
2024-04-14T17:14:29.133Z,32.57
2024-04-14T17:16:56.278Z,32.34
2024-04-14T17:19:23.408Z,32.36
2024-04-14T17:21:50.514Z,32.61
2024-04-14T17:24:20.181Z,32.16
2024-04-14T17:26:47.253Z,32.07
2024-04-14T17:29:14.298Z,31.96
2024-04-14T17:31:41.360Z,31.98
2024-04-14T17:34:08.479Z,32.09
2024-04-14T17:36:35.589Z,32.20
2024-04-14T17:39:02.689Z,32.31
2024-04-14T17:41:32.375Z,32.34
2024-04-14T17:43:59.435Z,31.89
2024-04-14T17:46:26.513Z,31.76
2024-04-14T17:48:53.587Z,30.78
2024-04-14T17:51:20.665Z,30.46
2024-04-14T17:53:47.888Z,30.55
2024-04-14T17:56:14.977Z,30.25
2024-04-14T17:58:46.810Z,30.19
2024-04-14T18:01:14.165Z,30.25
2024-04-14T18:03:41.281Z,29.97
2024-04-14T18:06:08.420Z,29.88
2024-04-14T18:08:35.474Z,29.93
2024-04-14T18:11:02.617Z,29.79
2024-04-14T18:13:29.668Z,29.73
2024-04-14T18:15:59.382Z,29.53
2024-04-14T18:18:26.474Z,29.32
2024-04-14T18:20:53.540Z,29.24
2024-04-14T18:23:20.607Z,29.10
2024-04-14T18:25:47.660Z,29.01
2024-04-14T18:28:14.725Z,28.98
2024-04-14T18:30:41.861Z,28.66
2024-04-14T18:33:11.846Z,28.38
2024-04-14T18:35:38.975Z,28.21
2024-04-14T18:38:06.125Z,28.07
2024-04-14T18:40:33.218Z,28.07
2024-04-14T18:43:00.444Z,28.15
2024-04-14T18:45:27.590Z,28.10
2024-04-14T18:47:54.824Z,28.03
2024-04-14T18:50:24.548Z,27.43
2024-04-14T18:52:51.654Z,27.46
2024-04-14T18:55:18.725Z,27.50
2024-04-14T18:57:48.005Z,27.31
2024-04-14T19:00:15.528Z,27.22
2024-04-14T19:02:42.685Z,27.15
2024-04-14T19:05:09.804Z,27.05
2024-04-14T19:07:39.612Z,27.00
2024-04-14T19:10:07.580Z,26.96
2024-04-14T19:12:34.851Z,26.54
2024-04-14T19:15:02.066Z,26.61
2024-04-14T19:17:29.328Z,26.71
2024-04-14T19:19:56.424Z,26.72
2024-04-14T19:22:23.529Z,26.60
2024-04-14T19:24:53.530Z,26.66
2024-04-14T19:27:20.776Z,26.68
2024-04-14T19:29:47.897Z,26.61
2024-04-14T19:32:14.986Z,26.57
2024-04-14T19:34:41.831Z,26.54
2024-04-14T19:37:08.692Z,26.48
2024-04-14T19:39:35.511Z,26.44
2024-04-14T19:42:05.470Z,26.34
2024-04-14T19:44:32.240Z,26.34
2024-04-14T19:46:58.968Z,26.25
2024-04-14T19:49:25.685Z,26.20
2024-04-14T19:51:52.430Z,26.07
2024-04-14T19:54:19.316Z,25.98
2024-04-14T19:56:46.312Z,26.04
2024-04-14T19:59:15.887Z,25.85
2024-04-14T20:01:42.971Z,25.87
2024-04-14T20:04:09.842Z,25.82
2024-04-14T20:06:36.721Z,25.74
2024-04-14T20:09:03.772Z,25.71
2024-04-14T20:11:30.575Z,25.59
2024-04-14T20:13:57.352Z,25.51
2024-04-14T20:16:26.688Z,25.41
2024-04-14T20:18:53.542Z,25.37
2024-04-14T20:21:20.543Z,25.30
2024-04-14T20:23:47.295Z,25.20
2024-04-14T20:26:14.240Z,25.19
2024-04-14T20:28:41.350Z,25.22
2024-04-14T20:31:11.321Z,25.18
2024-04-14T20:33:42.470Z,25.12
2024-04-14T20:36:10.093Z,24.68
2024-04-14T20:38:37.912Z,24.96
2024-04-14T20:41:05.188Z,25.07
2024-04-14T20:43:32.667Z,25.05
2024-04-14T20:45:59.854Z,24.75
2024-04-14T20:48:27.077Z,24.92
2024-04-14T20:50:56.557Z,24.66
2024-04-14T20:53:23.559Z,24.75
2024-04-14T20:55:50.245Z,24.72
2024-04-14T20:58:17.122Z,24.36
2024-04-14T21:00:44.046Z,24.27
2024-04-14T21:03:11.035Z,24.47
2024-04-14T21:05:38.001Z,24.52
2024-04-14T21:08:07.689Z,24.44
2024-04-14T21:10:34.408Z,24.46
2024-04-14T21:13:01.201Z,24.34
2024-04-14T21:15:31.298Z,24.28
2024-04-14T21:17:58.192Z,24.25
2024-04-14T21:20:25.039Z,24.20
2024-04-14T21:22:51.852Z,23.71
2024-04-14T21:25:21.250Z,23.87
2024-04-14T21:27:48.241Z,24.11
2024-04-14T21:30:15.230Z,24.10
2024-04-14T21:32:42.247Z,23.95
2024-04-14T21:35:09.390Z,23.84
2024-04-14T21:37:36.230Z,23.84
2024-04-14T21:40:03.236Z,23.93
2024-04-14T21:42:33.070Z,23.99
2024-04-14T21:45:01.318Z,23.71
2024-04-14T21:47:28.675Z,23.76
2024-04-14T21:49:55.640Z,23.82
2024-04-14T21:52:22.700Z,23.84
2024-04-14T21:54:51.724Z,23.77
2024-04-14T21:57:18.913Z,23.84
2024-04-14T21:59:48.857Z,23.74
2024-04-14T22:02:16.341Z,23.67
2024-04-14T22:04:43.636Z,23.55
2024-04-14T22:07:10.904Z,23.56
2024-04-14T22:09:38.067Z,23.35
2024-04-14T22:12:05.803Z,23.43
2024-04-14T22:14:32.929Z,23.49
2024-04-14T22:17:02.494Z,23.49
2024-04-14T22:19:29.486Z,23.54
2024-04-14T22:21:56.622Z,23.35
2024-04-14T22:24:23.826Z,23.42
2024-04-14T22:26:50.763Z,23.43
2024-04-14T22:29:17.837Z,23.41
2024-04-14T22:31:44.833Z,23.40
2024-04-14T22:34:14.367Z,23.28
2024-04-14T22:36:41.390Z,23.42
2024-04-14T22:39:08.726Z,23.43
2024-04-14T22:41:36.289Z,23.41
2024-04-14T22:44:03.314Z,23.36
2024-04-14T22:46:30.745Z,23.37
2024-04-14T22:48:58.148Z,23.19
2024-04-14T22:51:28.147Z,22.86
2024-04-14T22:53:55.493Z,23.02
2024-04-14T22:56:22.920Z,23.20
2024-04-14T22:58:50.152Z,23.20
2024-04-14T23:01:20.275Z,23.02
2024-04-14T23:03:49.244Z,22.81
2024-04-14T23:06:16.552Z,22.88
2024-04-14T23:08:46.364Z,23.09
2024-04-14T23:11:13.519Z,23.14
2024-04-14T23:13:40.284Z,23.24
2024-04-14T23:16:07.190Z,22.94
2024-04-14T23:18:34.087Z,23.06
2024-04-14T23:21:01.195Z,23.13
2024-04-14T23:23:28.155Z,23.17
2024-04-14T23:25:57.958Z,23.05
2024-04-14T23:28:24.665Z,22.78
2024-04-14T23:30:51.539Z,22.89
2024-04-14T23:33:18.494Z,22.81
2024-04-14T23:35:45.385Z,22.92
2024-04-14T23:38:12.216Z,22.88
2024-04-14T23:40:38.903Z,22.86
2024-04-14T23:43:08.248Z,22.90
2024-04-14T23:45:35.004Z,22.61
2024-04-14T23:48:01.921Z,22.71
2024-04-14T23:50:28.827Z,22.78
2024-04-14T23:52:55.579Z,22.48
2024-04-14T23:55:22.611Z,22.51
2024-04-14T23:57:49.413Z,22.31
